Time;durP1;ratioP1;P1;durP2;ratioP2;P2;SDS_P1;SDS_P2;PMS_P1;PMS_P2;Temp;Humidity;BMP_temperature;BMP_pressure;BME280_temperature;BME280_humidity;BME280_pressure;Samples;Min_cycle;Max_cycle;Signal;HPM_P1;HPM_P2
2022/10/17 05:41:53;;;;;;;;;;;17.30;75.30;;;;;;5119284;28;19937;-84
2022/10/17 05:44:19;;;;;;;;;;;17.30;73.90;;;;;;5118321;28;19928;-84
2022/10/17 05:46:48;;;;;;;;;;;17.30;72.50;;;;;;5116886;28;19920;-84
2022/10/17 05:49:15;;;;;;;;;;;17.30;73.10;;;;;;5113588;28;19908;-84
2022/10/17 05:51:42;;;;;;;;;;;17.30;74.00;;;;;;5109989;28;19962;-85
2022/10/17 05:54:08;;;;;;;;;;;17.40;73.70;;;;;;5106213;28;19920;-84
2022/10/17 05:56:35;;;;;;;;;;;17.30;73.60;;;;;;5112317;28;19911;-84
2022/10/17 05:59:02;;;;;;;;;;;17.30;73.30;;;;;;5112583;28;19912;-77
2022/10/17 06:01:28;;;;;;;;;;;17.30;73.00;;;;;;5113063;28;19957;-82
2022/10/17 06:03:55;;;;;;;;;;;17.30;74.00;;;;;;5112035;28;19920;-82
2022/10/17 06:06:22;;;;;;;;;;;17.30;74.30;;;;;;5112862;28;20019;-79
2022/10/17 06:08:48;;;;;;;;;;;17.20;73.10;;;;;;5111859;28;21644;-81
2022/10/17 06:11:15;;;;;;;;;;;17.30;73.20;;;;;;5075416;28;20002;-82
2022/10/17 06:13:42;;;;;;;;;;;17.30;73.00;;;;;;5110791;28;20297;-82
2022/10/17 06:16:08;;;;;;;;;;;17.30;72.40;;;;;;5112458;28;19912;-79
2022/10/17 06:18:35;;;;;;;;;;;17.30;73.20;;;;;;5112446;28;19912;-77
2022/10/17 06:21:03;;;;;;;;;;;17.30;73.20;;;;;;5093980;28;19950;-81
2022/10/17 06:23:30;;;;;;;;;;;17.30;73.70;;;;;;5093473;28;19920;-81
2022/10/17 06:26:02;;;;;;;;;;;17.40;73.30;;;;;;5111846;28;19961;-80
2022/10/17 06:28:29;;;;;;;;;;;17.30;73.20;;;;;;5108623;28;19915;-82
2022/10/17 06:30:56;;;;;;;;;;;17.30;73.50;;;;;;5109533;28;19912;-80
2022/10/17 06:33:22;;;;;;;;;;;17.30;72.50;;;;;;5102596;28;19912;-81
2022/10/17 06:35:52;;;;;;;;;;;17.30;73.60;;;;;;5111965;28;19915;-81
2022/10/17 06:38:19;;;;;;;;;;;17.30;74.20;;;;;;5112632;27;20011;-81
2022/10/17 06:40:45;;;;;;;;;;;17.30;73.30;;;;;;5132633;27;19919;-82
2022/10/17 06:43:12;;;;;;;;;;;17.30;73.40;;;;;;5116890;27;20026;-82
2022/10/17 06:45:39;;;;;;;;;;;17.30;74.10;;;;;;5119870;27;20513;-80
2022/10/17 06:48:07;;;;;;;;;;;17.30;74.20;;;;;;5130379;27;21384;-82
2022/10/17 06:50:34;;;;;;;;;;;17.30;74.90;;;;;;5103380;27;19918;-84
2022/10/17 06:53:01;;;;;;;;;;;17.30;75.20;;;;;;5125553;27;19962;-83
2022/10/17 06:55:28;;;;;;;;;;;17.30;75.20;;;;;;5121388;27;19916;-81
2022/10/17 06:57:55;;;;;;;;;;;17.20;75.70;;;;;;5112456;27;19957;-81
2022/10/17 07:00:22;;;;;;;;;;;17.20;75.00;;;;;;5077117;28;20338;-84
2022/10/17 07:02:49;;;;;;;;;;;17.20;74.80;;;;;;5111071;28;19920;-82
2022/10/17 07:05:16;;;;;;;;;;;17.20;74.60;;;;;;5111384;28;19973;-80
2022/10/17 07:07:42;;;;;;;;;;;17.20;75.50;;;;;;5109450;28;20438;-80
2022/10/17 07:10:09;;;;;;;;;;;17.10;74.30;;;;;;5108945;28;19915;-82
2022/10/17 07:12:36;;;;;;;;;;;17.10;74.20;;;;;;5110247;28;19912;-84
2022/10/17 07:15:03;;;;;;;;;;;17.10;74.60;;;;;;5111602;28;19915;-86
2022/10/17 07:17:30;;;;;;;;;;;17.00;75.20;;;;;;5111081;28;19998;-89
2022/10/17 07:19:57;;;;;;;;;;;17.10;74.90;;;;;;5111115;28;19909;-89
2022/10/17 07:22:23;;;;;;;;;;;17.00;75.10;;;;;;5110011;28;19923;-85
2022/10/17 07:24:50;;;;;;;;;;;17.00;75.50;;;;;;5098686;28;19930;-87
2022/10/17 07:27:17;;;;;;;;;;;17.00;75.40;;;;;;5111118;28;19980;-84
2022/10/17 07:29:43;;;;;;;;;;;17.00;75.20;;;;;;5107060;28;19922;-87
2022/10/17 07:32:10;;;;;;;;;;;17.00;75.30;;;;;;5113360;27;19916;-88
2022/10/17 07:34:36;;;;;;;;;;;17.00;75.90;;;;;;5114903;27;19915;-88
2022/10/17 07:37:05;;;;;;;;;;;17.00;75.90;;;;;;5114022;27;19916;-85
2022/10/17 07:39:34;;;;;;;;;;;16.90;75.90;;;;;;5114867;27;20366;-85
2022/10/17 07:42:01;;;;;;;;;;;16.90;75.80;;;;;;5103019;27;19927;-81
2022/10/17 07:44:27;;;;;;;;;;;16.90;75.70;;;;;;5096851;28;19930;-80
2022/10/17 07:46:54;;;;;;;;;;;16.90;75.80;;;;;;5078408;28;19978;-84
2022/10/17 07:49:21;;;;;;;;;;;16.90;76.40;;;;;;5090129;28;19912;-80
2022/10/17 07:51:48;;;;;;;;;;;16.90;76.70;;;;;;5092894;28;19939;-82
2022/10/17 07:54:15;;;;;;;;;;;16.80;76.20;;;;;;5088030;28;19965;-81
2022/10/17 07:56:41;;;;;;;;;;;16.80;76.30;;;;;;5096644;28;19920;-76
2022/10/17 07:59:08;;;;;;;;;;;16.80;75.90;;;;;;5107890;28;20006;-75
2022/10/17 08:01:35;;;;;;;;;;;16.80;76.00;;;;;;5092598;28;19916;-74
2022/10/17 10:19:37;;;;;;;;;;;16.70;76.60;;;;;;5109839;28;19935;-83
2022/10/17 10:22:17;;;;;;;;;;;16.70;76.80;;;;;;5112461;28;19941;-81
2022/10/17 10:24:44;;;;;;;;;;;16.70;76.80;;;;;;5094657;28;20363;-81
2022/10/17 10:27:16;;;;;;;;;;;16.70;76.60;;;;;;5084512;28;19941;-87
2022/10/17 10:29:48;;;;;;;;;;;16.70;76.70;;;;;;5102392;28;19920;-88
2022/10/17 10:32:15;;;;;;;;;;;16.70;77.30;;;;;;5112376;28;19912;-85
2022/10/17 10:34:48;;;;;;;;;;;16.70;77.20;;;;;;5112402;28;19911;-85
2022/10/17 10:37:16;;;;;;;;;;;16.70;77.20;;;;;;5077313;28;19913;-78
2022/10/17 10:40:09;;;;;;;;;;;16.70;76.70;;;;;;5086113;28;20452;-86
2022/10/17 10:42:36;;;;;;;;;;;16.70;76.60;;;;;;5080973;28;19916;-85
2022/10/17 10:45:16;;;;;;;;;;;16.70;76.90;;;;;;5111844;28;19926;-82
2022/10/17 10:47:53;;;;;;;;;;;16.80;76.60;;;;;;5099335;28;20573;-82
2022/10/17 10:50:29;;;;;;;;;;;16.70;76.90;;;;;;5108584;28;19920;-82
2022/10/17 10:53:05;;;;;;;;;;;16.70;76.60;;;;;;5101216;28;19908;-82
2022/10/17 10:55:36;;;;;;;;;;;16.70;76.60;;;;;;5106816;28;20289;-82
2022/10/17 10:58:03;;;;;;;;;;;16.70;76.40;;;;;;5103076;28;19958;-82
2022/10/17 11:00:30;;;;;;;;;;;16.70;76.80;;;;;;5114260;28;20281;-82
2022/10/17 11:03:03;;;;;;;;;;;16.70;76.90;;;;;;5114581;28;19908;-82
2022/10/17 11:05:38;;;;;;;;;;;16.70;77.20;;;;;;5096465;28;19912;-82
2022/10/17 11:08:25;;;;;;;;;;;16.70;77.40;;;;;;5072003;28;19912;-82
2022/10/17 11:11:01;;;;;;;;;;;16.70;76.20;;;;;;5114069;28;20361;-82
2022/10/17 11:13:32;;;;;;;;;;;16.70;76.40;;;;;;5112166;28;20387;-83
2022/10/17 11:16:00;;;;;;;;;;;16.70;76.90;;;;;;5081645;28;20388;-82
2022/10/17 11:18:26;;;;;;;;;;;16.70;76.30;;;;;;5124683;27;20389;-82
2022/10/17 11:20:58;;;;;;;;;;;16.70;76.20;;;;;;5134642;27;20280;-82
2022/10/17 11:23:36;;;;;;;;;;;16.70;76.60;;;;;;5116534;27;19940;-83
2022/10/17 11:26:06;;;;;;;;;;;16.70;75.90;;;;;;5111933;27;19912;-82
2022/10/17 11:28:32;;;;;;;;;;;16.70;75.90;;;;;;5116035;27;20002;-82
2022/10/17 11:31:11;;;;;;;;;;;16.70;76.30;;;;;;5134492;27;19914;-82
2022/10/17 11:33:41;;;;;;;;;;;16.70;76.40;;;;;;5116676;27;19914;-80
2022/10/17 11:36:07;;;;;;;;;;;16.70;76.40;;;;;;5129776;27;19911;-80
2022/10/17 11:38:54;;;;;;;;;;;16.70;77.00;;;;;;5116114;27;20358;-81
2022/10/17 11:41:29;;;;;;;;;;;16.70;76.50;;;;;;5115978;27;19908;-81
2022/10/17 11:43:59;;;;;;;;;;;16.70;76.10;;;;;;5116313;27;19920;-82
2022/10/17 11:46:26;;;;;;;;;;;16.70;76.00;;;;;;5126507;27;19952;-82
2022/10/17 11:49:05;;;;;;;;;;;16.70;76.20;;;;;;5092118;27;19911;-82
2022/10/17 11:51:35;;;;;;;;;;;16.60;76.00;;;;;;5133031;27;20015;-82
2022/10/17 11:54:17;;;;;;;;;;;16.60;76.20;;;;;;5133837;27;19952;-82
2022/10/17 11:57:02;;;;;;;;;;;16.60;76.00;;;;;;5123343;27;19907;-82
2022/10/17 11:59:28;;;;;;;;;;;16.60;76.50;;;;;;5107472;27;19908;-82
2022/10/17 12:02:01;;;;;;;;;;;16.60;76.60;;;;;;5134252;27;19908;-82
2022/10/17 12:04:38;;;;;;;;;;;16.60;76.50;;;;;;5105202;27;20097;-82
2022/10/17 12:07:16;;;;;;;;;;;16.60;77.00;;;;;;5109591;27;19912;-82
2022/10/17 12:09:46;;;;;;;;;;;16.60;76.50;;;;;;5089692;27;19914;-82
2022/10/17 12:12:33;;;;;;;;;;;16.60;76.70;;;;;;5133803;27;19989;-82
2022/10/17 12:15:22;;;;;;;;;;;16.60;76.70;;;;;;5133798;27;19914;-82
2022/10/17 12:17:57;;;;;;;;;;;16.50;76.80;;;;;;5113786;27;19939;-82
2022/10/17 12:20:26;;;;;;;;;;;16.60;76.70;;;;;;5085959;28;19920;-81
2022/10/17 12:22:53;;;;;;;;;;;16.60;77.00;;;;;;5094898;28;19908;-82
2022/10/17 12:25:25;;;;;;;;;;;16.60;77.00;;;;;;5094859;28;19926;-82
2022/10/17 12:27:52;;;;;;;;;;;16.60;76.90;;;;;;5091747;28;19926;-82
2022/10/17 12:30:24;;;;;;;;;;;16.50;76.70;;;;;;5094775;28;19918;-82
2022/10/17 12:33:02;;;;;;;;;;;16.50;77.20;;;;;;5113014;28;19912;-82
2022/10/17 12:35:29;;;;;;;;;;;16.50;77.10;;;;;;5083160;28;19916;-82
2022/10/17 12:37:55;;;;;;;;;;;16.50;77.20;;;;;;5112837;28;19912;-82
2022/10/17 12:40:34;;;;;;;;;;;16.50;77.20;;;;;;5112762;28;19914;-82
2022/10/17 12:43:01;;;;;;;;;;;16.50;77.40;;;;;;5103629;28;19981;-82
2022/10/17 12:45:50;;;;;;;;;;;16.50;77.20;;;;;;5083628;28;19916;-82
2022/10/17 12:48:35;;;;;;;;;;;16.50;77.30;;;;;;5112878;28;19907;-82
2022/10/17 12:51:11;;;;;;;;;;;16.50;76.70;;;;;;5087545;28;19915;-82
2022/10/17 12:53:46;;;;;;;;;;;16.50;77.00;;;;;;5094701;28;20006;-82
2022/10/17 12:56:13;;;;;;;;;;;16.50;76.70;;;;;;5112494;28;19919;-82
2022/10/17 12:58:47;;;;;;;;;;;16.50;77.00;;;;;;5094393;28;19912;-82
2022/10/17 13:01:27;;;;;;;;;;;16.50;76.90;;;;;;5093698;28;19912;-82
2022/10/17 13:03:54;;;;;;;;;;;16.50;77.30;;;;;;5087482;28;19928;-82
2022/10/17 13:06:24;;;;;;;;;;;16.50;77.40;;;;;;5097996;28;19928;-82
2022/10/17 13:08:56;;;;;;;;;;;16.50;78.10;;;;;;5098663;28;20320;-81
2022/10/17 13:11:23;;;;;;;;;;;16.50;78.00;;;;;;5098878;28;19919;-82
2022/10/17 13:13:51;;;;;;;;;;;16.50;78.30;;;;;;5116898;28;19915;-82
2022/10/17 13:16:26;;;;;;;;;;;16.40;78.50;;;;;;5093730;28;19912;-82
2022/10/17 13:18:53;;;;;;;;;;;16.40;78.40;;;;;;5115063;28;20077;-80
2022/10/17 13:21:20;;;;;;;;;;;16.40;78.80;;;;;;5112821;28;19912;-80
2022/10/17 13:23:49;;;;;;;;;;;16.40;78.60;;;;;;5107058;28;19927;-80
2022/10/17 13:26:22;;;;;;;;;;;16.40;78.70;;;;;;5097583;28;19916;-80
2022/10/17 13:29:01;;;;;;;;;;;16.40;79.00;;;;;;5116552;28;20279;-80
2022/10/17 13:31:35;;;;;;;;;;;16.40;78.90;;;;;;5116227;28;19908;-80
2022/10/17 13:34:02;;;;;;;;;;;16.50;79.00;;;;;;5098267;28;19908;-80
2022/10/17 13:36:29;;;;;;;;;;;16.40;78.90;;;;;;5097329;28;19933;-80
2022/10/17 13:39:06;;;;;;;;;;;16.40;79.10;;;;;;5097903;28;19943;-80
2022/10/17 13:41:33;;;;;;;;;;;16.40;78.80;;;;;;5090784;28;20155;-80
2022/10/17 13:44:00;;;;;;;;;;;16.40;79.20;;;;;;5115702;28;19923;-82
2022/10/17 13:46:31;;;;;;;;;;;16.40;79.20;;;;;;5096745;28;20381;-82
2022/10/17 13:48:58;;;;;;;;;;;16.30;79.60;;;;;;5096102;28;20269;-82
2022/10/17 13:51:27;;;;;;;;;;;16.30;79.60;;;;;;5115986;28;19908;-81
2022/10/17 13:53:54;;;;;;;;;;;16.30;79.90;;;;;;5115787;28;20262;-82
2022/10/17 13:56:26;;;;;;;;;;;16.40;79.90;;;;;;5097241;28;19911;-82
2022/10/17 13:59:00;;;;;;;;;;;16.30;80.30;;;;;;5115527;28;20298;-82
2022/10/17 14:01:27;;;;;;;;;;;16.30;80.20;;;;;;5088923;28;20397;-82
2022/10/17 14:03:54;;;;;;;;;;;16.20;80.50;;;;;;5093023;28;19916;-82
2022/10/17 14:06:24;;;;;;;;;;;16.30;80.90;;;;;;5096788;28;19918;-82
2022/10/17 14:08:52;;;;;;;;;;;16.30;81.10;;;;;;5115544;28;19908;-82
2022/10/17 14:11:24;;;;;;;;;;;16.20;80.80;;;;;;5097143;28;19907;-82
2022/10/17 14:13:51;;;;;;;;;;;16.30;81.10;;;;;;5109953;28;19991;-81
2022/10/17 14:16:18;;;;;;;;;;;16.20;80.40;;;;;;5078090;28;20425;-82
2022/10/17 14:18:46;;;;;;;;;;;16.20;80.90;;;;;;5128603;27;20273;-81
2022/10/17 14:21:17;;;;;;;;;;;16.20;81.00;;;;;;5109305;27;20368;-82
2022/10/17 14:23:44;;;;;;;;;;;16.20;81.20;;;;;;5131295;27;19924;-82
2022/10/17 14:26:12;;;;;;;;;;;16.20;81.60;;;;;;5128330;27;19923;-82
2022/10/17 14:28:39;;;;;;;;;;;16.10;81.70;;;;;;5117656;27;19951;-81
2022/10/17 14:31:29;;;;;;;;;;;16.00;81.70;;;;;;5112071;27;19911;-81
2022/10/17 14:33:55;;;;;;;;;;;16.00;81.60;;;;;;5112756;27;19912;-82
2022/10/17 14:36:29;;;;;;;;;;;16.00;81.90;;;;;;5119556;27;19916;-82
2022/10/17 14:38:56;;;;;;;;;;;16.00;81.80;;;;;;5117386;27;19907;-80
2022/10/17 14:41:24;;;;;;;;;;;16.00;82.50;;;;;;5111184;27;20006;-80
2022/10/17 14:43:57;;;;;;;;;;;16.00;82.40;;;;;;5113615;27;20006;-80
2022/10/17 14:46:24;;;;;;;;;;;15.90;82.20;;;;;;5095004;28;19912;-80
2022/10/17 14:48:51;;;;;;;;;;;15.80;82.70;;;;;;5111942;27;20002;-80
2022/10/17 14:51:18;;;;;;;;;;;15.80;82.90;;;;;;5135661;27;19946;-80
2022/10/17 14:54:11;;;;;;;;;;;15.80;82.90;;;;;;5117163;27;19950;-80
2022/10/17 14:56:41;;;;;;;;;;;15.80;83.20;;;;;;5116845;27;20273;-80
2022/10/17 14:59:11;;;;;;;;;;;15.90;83.20;;;;;;5116597;27;19954;-80
2022/10/17 15:01:37;;;;;;;;;;;15.90;83.00;;;;;;5135030;27;19954;-80
2022/10/17 15:04:04;;;;;;;;;;;15.90;83.00;;;;;;5135146;27;19933;-80
2022/10/17 15:06:34;;;;;;;;;;;15.90;83.30;;;;;;5113817;27;20012;-80
2022/10/17 15:09:00;;;;;;;;;;;15.90;83.50;;;;;;5101467;27;20007;-80
2022/10/17 15:11:27;;;;;;;;;;;15.90;83.70;;;;;;5134843;27;19908;-80
2022/10/17 15:13:53;;;;;;;;;;;15.80;83.50;;;;;;5135367;27;19919;-80
2022/10/17 15:16:24;;;;;;;;;;;15.90;83.90;;;;;;5126148;27;19911;-80
2022/10/17 15:21:16;;;;;;;;;;;15.80;84.10;;;;;;5122720;27;20430;-80
2022/10/17 15:23:43;;;;;;;;;;;15.80;84.30;;;;;;5134022;27;20396;-80
2022/10/17 15:26:19;;;;;;;;;;;15.80;84.30;;;;;;5131921;27;19980;-80
2022/10/17 15:28:46;;;;;;;;;;;15.70;84.20;;;;;;5127910;27;19918;-80
2022/10/17 15:31:13;;;;;;;;;;;15.70;84.30;;;;;;5110462;27;20293;-80
2022/10/17 15:33:40;;;;;;;;;;;15.80;84.80;;;;;;5115991;27;20010;-80
2022/10/17 15:36:19;;;;;;;;;;;15.80;84.10;;;;;;5116250;27;20276;-80
2022/10/17 15:38:46;;;;;;;;;;;15.80;83.60;;;;;;5119155;27;19911;-80
2022/10/17 15:41:13;;;;;;;;;;;15.90;83.10;;;;;;5099521;27;20273;-80
2022/10/17 15:43:39;;;;;;;;;;;15.90;82.70;;;;;;5134427;27;20357;-80
2022/10/17 15:46:11;;;;;;;;;;;16.00;82.60;;;;;;5134629;27;20002;-80
2022/10/17 15:48:38;;;;;;;;;;;16.00;82.50;;;;;;5116229;27;19916;-80
2022/10/17 15:51:04;;;;;;;;;;;16.00;82.60;;;;;;5125991;27;19912;-80
2022/10/17 15:53:31;;;;;;;;;;;16.10;82.50;;;;;;5133895;27;20319;-80
2022/10/17 15:55:58;;;;;;;;;;;16.10;82.70;;;;;;5134061;27;19911;-80
2022/10/17 15:58:27;;;;;;;;;;;16.00;82.10;;;;;;5117152;27;20282;-80
2022/10/17 16:00:53;;;;;;;;;;;16.00;81.80;;;;;;5132196;27;19915;-80
2022/10/17 16:03:20;;;;;;;;;;;16.10;82.10;;;;;;5124965;27;19923;-80
2022/10/17 16:05:47;;;;;;;;;;;16.10;81.80;;;;;;5133929;27;19912;-80
2022/10/17 16:08:13;;;;;;;;;;;16.10;82.00;;;;;;5134296;27;20369;-80
2022/10/17 16:10:40;;;;;;;;;;;16.10;82.00;;;;;;5127123;27;19975;-80
2022/10/17 16:13:09;;;;;;;;;;;16.10;81.90;;;;;;5133625;27;19947;-80
2022/10/17 16:15:36;;;;;;;;;;;16.10;82.40;;;;;;5099656;27;19911;-80
2022/10/17 16:18:03;;;;;;;;;;;16.00;82.90;;;;;;5134054;27;20329;-80
2022/10/17 16:20:30;;;;;;;;;;;15.90;83.00;;;;;;5133614;27;19923;-80
2022/10/17 16:22:59;;;;;;;;;;;15.80;83.10;;;;;;5107832;28;19943;-80
2022/10/17 16:25:27;;;;;;;;;;;15.80;83.40;;;;;;5112325;27;19923;-79
2022/10/17 16:27:54;;;;;;;;;;;15.80;83.70;;;;;;5108083;27;19922;-80
2022/10/17 16:30:21;;;;;;;;;;;15.70;83.90;;;;;;5133538;27;20385;-80
2022/10/17 16:32:47;;;;;;;;;;;15.70;83.60;;;;;;5133533;27;19914;-80
2022/10/17 16:35:15;;;;;;;;;;;15.60;83.90;;;;;;5130057;27;19920;-80
2022/10/17 16:37:42;;;;;;;;;;;15.60;84.20;;;;;;5119190;27;19912;-80
2022/10/17 16:40:09;;;;;;;;;;;15.50;84.50;;;;;;5125011;27;19911;-80
2022/10/17 16:42:36;;;;;;;;;;;15.40;84.80;;;;;;5133479;27;19908;-80
2022/10/17 16:45:03;;;;;;;;;;;15.30;85.00;;;;;;5133182;27;19968;-80
2022/10/17 16:47:29;;;;;;;;;;;15.30;85.10;;;;;;5133459;27;19919;-80
2022/10/17 16:49:56;;;;;;;;;;;15.30;84.90;;;;;;5128836;27;19916;-80
2022/10/17 16:52:23;;;;;;;;;;;15.30;85.00;;;;;;5130064;28;19998;-80
2022/10/17 16:54:49;;;;;;;;;;;15.20;85.10;;;;;;5133296;28;19953;-80
2022/10/17 16:57:16;;;;;;;;;;;15.20;85.10;;;;;;5133496;28;19990;-80
2022/10/17 16:59:42;;;;;;;;;;;15.20;85.00;;;;;;5118966;28;19915;-80
2022/10/17 17:02:10;;;;;;;;;;;15.20;85.10;;;;;;5129801;28;20376;-80
2022/10/17 17:04:36;;;;;;;;;;;15.20;85.20;;;;;;5133304;28;19922;-80
2022/10/17 17:07:03;;;;;;;;;;;15.10;85.00;;;;;;5133101;28;20309;-80
2022/10/17 17:09:30;;;;;;;;;;;15.10;85.10;;;;;;5133171;28;19946;-80
2022/10/17 17:11:56;;;;;;;;;;;15.10;85.20;;;;;;5133310;28;20379;-80
2022/10/17 17:14:23;;;;;;;;;;;15.00;85.30;;;;;;5130576;28;19920;-80
2022/10/17 17:16:49;;;;;;;;;;;15.00;85.40;;;;;;5133080;28;19911;-79
2022/10/17 17:19:16;;;;;;;;;;;15.00;85.60;;;;;;5120696;28;19930;-79
2022/10/17 17:21:52;;;;;;;;;;;15.00;85.80;;;;;;5133093;28;19985;-80
2022/10/17 17:24:22;;;;;;;;;;;14.90;86.00;;;;;;5132800;28;19923;-79
2022/10/17 17:26:50;;;;;;;;;;;14.90;86.30;;;;;;5121107;28;19965;-80
2022/10/17 17:29:16;;;;;;;;;;;14.80;86.90;;;;;;5130859;28;19996;-80
2022/10/17 17:31:43;;;;;;;;;;;14.80;86.90;;;;;;5121704;28;19922;-80
2022/10/17 17:34:10;;;;;;;;;;;14.80;86.60;;;;;;5113661;28;19916;-80
2022/10/17 17:36:37;;;;;;;;;;;14.80;86.40;;;;;;5129247;28;19911;-80
2022/10/17 17:39:08;;;;;;;;;;;14.80;86.40;;;;;;5115906;28;19955;-80
2022/10/17 17:41:34;;;;;;;;;;;14.80;86.30;;;;;;5129509;28;19934;-80
2022/10/17 17:44:01;;;;;;;;;;;14.70;86.60;;;;;;5132380;28;19915;-80
2022/10/17 17:46:28;;;;;;;;;;;14.70;87.10;;;;;;5132441;28;19953;-79
2022/10/17 17:48:55;;;;;;;;;;;14.70;87.00;;;;;;5116362;27;20416;-80
2022/10/17 17:51:22;;;;;;;;;;;14.70;87.00;;;;;;5107245;28;19915;-79
2022/10/17 17:53:51;;;;;;;;;;;14.70;86.70;;;;;;5119049;27;19912;-75
2022/10/17 17:56:25;;;;;;;;;;;14.70;87.00;;;;;;5119851;27;20323;-74
2022/10/17 17:58:55;;;;;;;;;;;14.70;87.50;;;;;;5117181;27;19996;-74
2022/10/17 18:01:22;;;;;;;;;;;14.70;87.00;;;;;;5112636;27;19965;-74
2022/10/17 18:03:50;;;;;;;;;;;14.70;87.20;;;;;;5116167;27;19919;-80
2022/10/17 18:06:17;;;;;;;;;;;14.70;87.00;;;;;;5116171;28;19912;-79
2022/10/17 18:08:44;;;;;;;;;;;14.70;87.30;;;;;;5105690;28;20327;-77
2022/10/17 18:11:10;;;;;;;;;;;14.70;86.90;;;;;;5115270;28;19964;-79
2022/10/17 23:25:43;;;;;;;;;;;17.90;78.80;;;;;;5104599;28;19945;-81
2022/10/17 23:28:10;;;;;;;;;;;17.80;79.10;;;;;;5110336;27;20377;-79
2022/10/17 23:30:37;;;;;;;;;;;17.80;78.70;;;;;;5111856;28;20374;-81
2022/10/17 23:33:04;;;;;;;;;;;17.90;79.60;;;;;;5092874;28;19912;-81
2022/10/17 23:35:31;;;;;;;;;;;17.90;79.10;;;;;;5088511;28;19938;-80
2022/10/17 23:37:57;;;;;;;;;;;17.90;78.60;;;;;;5110590;28;19912;-81
2022/10/17 23:40:24;;;;;;;;;;;17.90;77.50;;;;;;5112949;28;20357;-81
2022/10/17 23:42:51;;;;;;;;;;;17.90;78.00;;;;;;5113677;28;19908;-81
2022/10/17 23:45:17;;;;;;;;;;;18.00;78.30;;;;;;5113413;28;19975;-81
2022/10/17 23:47:44;;;;;;;;;;;17.90;77.20;;;;;;5113852;28;19942;-81
2022/10/17 23:50:11;;;;;;;;;;;17.90;78.00;;;;;;5113528;28;19908;-80
2022/10/17 23:52:37;;;;;;;;;;;17.90;77.80;;;;;;5113776;28;20378;-80
2022/10/17 23:55:04;;;;;;;;;;;17.90;78.40;;;;;;5113581;28;19946;-81
2022/10/17 23:57:31;;;;;;;;;;;17.90;78.90;;;;;;5113570;28;20393;-81
2022/10/17 23:59:57;;;;;;;;;;;17.90;79.30;;;;;;5113446;28;19943;-81
